Time;durP1;ratioP1;P1;durP2;ratioP2;P2;SDS_P1;SDS_P2;PMS_P1;PMS_P2;Temp;Humidity;BMP_temperature;BMP_pressure;BME280_temperature;BME280_humidity;BME280_pressure;Samples;Min_cycle;Max_cycle;Signal;HPM_P1;HPM_P2
2024/04/17 00:00:38;;;;;;;5.37;4.10;;;7.80;99.90;;;;;;5353593;26;20526;-68
2024/04/17 00:03:05;;;;;;;5.27;4.20;;;7.80;99.90;;;;;;5355862;26;20490;-65
2024/04/17 00:05:35;;;;;;;4.50;4.10;;;7.80;99.90;;;;;;5353337;26;20496;-68
2024/04/17 00:08:02;;;;;;;4.73;3.80;;;7.80;99.90;;;;;;5355834;26;20548;-65
2024/04/17 00:10:34;;;;;;;4.70;4.20;;;7.80;99.90;;;;;;5350848;26;20563;-65
2024/04/17 00:13:02;;;;;;;5.20;4.40;;;7.80;99.90;;;;;;5358116;26;20480;-65
2024/04/17 00:15:32;;;;;;;4.80;4.37;;;7.80;99.90;;;;;;5355459;26;20488;-65
2024/04/17 00:17:59;;;;;;;6.80;4.57;;;7.70;99.90;;;;;;5358713;26;20534;-65
2024/04/17 00:20:29;;;;;;;5.00;4.43;;;7.80;99.90;;;;;;5357149;26;20480;-65
2024/04/17 00:22:56;;;;;;;5.53;4.93;;;7.70;99.90;;;;;;5355069;26;20534;-65
2024/04/17 00:25:26;;;;;;;5.60;5.10;;;7.80;99.90;;;;;;5357377;26;20542;-65
2024/04/17 00:27:56;;;;;;;5.00;4.60;;;7.80;99.90;;;;;;5354351;26;20492;-65
2024/04/17 00:30:26;;;;;;;5.73;4.43;;;7.70;99.90;;;;;;5357706;26;20476;-65
2024/04/17 00:32:53;;;;;;;6.03;5.20;;;7.80;99.90;;;;;;5354552;26;20491;-65
2024/04/17 00:35:23;;;;;;;4.97;4.47;;;7.80;99.90;;;;;;5353055;26;20548;-65
2024/04/17 00:37:50;;;;;;;5.00;4.60;;;7.70;99.90;;;;;;5352041;26;21141;-65
2024/04/17 00:40:20;;;;;;;5.70;5.20;;;7.70;99.90;;;;;;5358377;26;20476;-65
2024/04/17 00:42:47;;;;;;;5.40;4.90;;;7.70;99.90;;;;;;5356120;26;21128;-65
2024/04/17 00:45:20;;;;;;;5.30;4.80;;;7.70;99.90;;;;;;5355210;26;20496;-65
2024/04/17 00:47:47;;;;;;;5.40;4.90;;;7.70;99.90;;;;;;5352765;26;20508;-65
2024/04/17 00:50:17;;;;;;;6.27;5.67;;;7.70;99.90;;;;;;5353663;26;20476;-66
2024/04/17 00:52:46;;;;;;;7.10;5.47;;;7.60;99.90;;;;;;5354640;26;21064;-65
2024/04/17 00:55:16;;;;;;;6.00;5.50;;;7.60;99.90;;;;;;5351577;26;20500;-65
2024/04/17 00:57:44;;;;;;;6.30;5.70;;;7.70;99.90;;;;;;5356216;26;20522;-66
2024/04/17 01:00:14;;;;;;;5.57;5.07;;;7.70;99.90;;;;;;5354575;26;20465;-64
2024/04/17 01:02:44;;;;;;;5.30;4.80;;;7.70;99.90;;;;;;5354648;26;21073;-65
2024/04/17 01:05:14;;;;;;;6.47;5.60;;;7.70;99.90;;;;;;5351702;26;20530;-68
2024/04/17 01:07:42;;;;;;;5.80;5.20;;;7.70;99.90;;;;;;5353523;26;20474;-65
2024/04/17 01:10:12;;;;;;;6.03;5.10;;;7.60;99.90;;;;;;5353222;26;20518;-65
2024/04/17 01:12:39;;;;;;;5.20;4.50;;;7.60;99.90;;;;;;5354266;26;20484;-65
2024/04/17 01:15:12;;;;;;;5.93;4.93;;;7.60;99.90;;;;;;5355231;26;20540;-65
2024/04/17 01:17:39;;;;;;;5.80;5.30;;;7.60;99.90;;;;;;5353818;26;20537;-65
2024/04/17 01:20:12;;;;;;;5.40;4.90;;;7.60;99.90;;;;;;5353934;26;20541;-65
2024/04/17 01:22:39;;;;;;;5.90;5.30;;;7.60;99.90;;;;;;5360004;26;20537;-65
2024/04/17 01:25:11;;;;;;;7.47;5.00;;;7.60;99.90;;;;;;5357662;26;20495;-65
2024/04/17 01:27:39;;;;;;;4.90;4.40;;;7.60;99.90;;;;;;5354083;26;20483;-65
2024/04/17 01:30:10;;;;;;;5.20;4.60;;;7.50;99.90;;;;;;5354379;26;20481;-65
2024/04/17 01:32:37;;;;;;;5.90;5.30;;;7.60;99.90;;;;;;5357841;26;20485;-65
2024/04/17 01:35:07;;;;;;;6.00;5.03;;;7.50;99.90;;;;;;5359478;26;20591;-65
2024/04/17 01:37:34;;;;;;;6.70;6.07;;;7.50;99.90;;;;;;5356653;26;20488;-67
2024/04/17 01:40:04;;;;;;;5.50;5.00;;;7.40;99.90;;;;;;5360225;26;20493;-65
2024/04/17 01:42:38;;;;;;;5.50;5.00;;;7.40;99.90;;;;;;5351918;26;20577;-65
2024/04/17 01:45:06;;;;;;;5.77;4.80;;;7.40;99.90;;;;;;5361357;26;21124;-65
2024/04/17 01:47:36;;;;;;;5.93;5.43;;;7.40;99.90;;;;;;5355897;26;20897;-65
2024/04/17 01:50:06;;;;;;;5.90;4.73;;;7.30;99.90;;;;;;5359369;26;20518;-65
2024/04/17 01:52:36;;;;;;;6.83;5.20;;;7.30;99.90;;;;;;5360788;26;20476;-65
2024/04/17 01:55:06;;;;;;;6.23;5.70;;;7.30;99.90;;;;;;5361340;26;20480;-65
2024/04/17 01:57:38;;;;;;;7.70;5.50;;;7.30;99.90;;;;;;5357988;26;21091;-65
2024/04/17 02:00:07;;;;;;;6.07;4.90;;;7.30;99.90;;;;;;5355636;26;20477;-65
2024/04/17 02:02:37;;;;;;;5.30;4.90;;;7.30;99.90;;;;;;5359465;26;20476;-65
2024/04/17 02:05:04;;;;;;;6.10;5.50;;;7.30;99.90;;;;;;5355143;26;21033;-64
2024/04/17 02:07:34;;;;;;;6.40;5.60;;;7.20;99.90;;;;;;5354872;26;21039;-65
2024/04/17 02:10:01;;;;;;;5.40;4.90;;;7.30;99.90;;;;;;5357845;26;20508;-65
2024/04/17 02:12:32;;;;;;;6.10;5.40;;;7.20;99.90;;;;;;5358390;26;20886;-65
2024/04/17 02:15:01;;;;;;;5.50;5.00;;;7.20;99.90;;;;;;5355201;26;20855;-65
2024/04/17 02:17:31;;;;;;;5.60;5.10;;;7.20;99.90;;;;;;5355920;26;20532;-65
2024/04/17 02:19:58;;;;;;;5.90;5.30;;;7.10;99.90;;;;;;5357478;26;20483;-65
2024/04/17 02:22:28;;;;;;;5.90;5.30;;;7.10;99.90;;;;;;5355036;26;20536;-65
2024/04/17 02:24:56;;;;;;;5.90;5.30;;;7.10;99.90;;;;;;5358475;26;21130;-64
2024/04/17 02:27:26;;;;;;;6.37;5.77;;;7.10;99.90;;;;;;5356693;26;20478;-65
2024/04/17 02:29:53;;;;;;;5.50;4.83;;;7.10;99.90;;;;;;5357109;26;20531;-65
2024/04/17 02:32:26;;;;;;;5.57;5.07;;;7.00;99.90;;;;;;5360195;26;20481;-65
2024/04/17 02:34:53;;;;;;;7.60;5.10;;;7.00;99.90;;;;;;5359038;26;20485;-65
2024/04/17 02:37:23;;;;;;;5.60;5.10;;;7.00;99.90;;;;;;5356317;26;20934;-65
2024/04/17 02:39:50;;;;;;;6.10;5.50;;;7.00;99.90;;;;;;5356345;26;20902;-65
2024/04/17 02:42:20;;;;;;;5.63;5.13;;;6.90;99.90;;;;;;5356961;26;20492;-65
2024/04/17 02:44:47;;;;;;;5.90;5.40;;;6.90;99.90;;;;;;5354286;26;20531;-65
2024/04/17 02:47:17;;;;;;;6.70;5.33;;;6.80;99.90;;;;;;5356281;26;20593;-65
2024/04/17 02:49:47;;;;;;;5.53;5.00;;;6.80;99.90;;;;;;5355676;26;20486;-65
2024/04/17 02:52:17;;;;;;;5.47;5.00;;;6.80;99.90;;;;;;5355965;26;20476;-65
2024/04/17 02:54:44;;;;;;;5.67;5.17;;;6.70;99.90;;;;;;5358434;26;20839;-65
2024/04/17 02:57:14;;;;;;;6.23;5.60;;;6.70;99.90;;;;;;5349580;26;20533;-65
2024/04/17 02:59:41;;;;;;;5.50;5.00;;;6.70;99.90;;;;;;5355320;26;20485;-65
2024/04/17 03:02:11;;;;;;;6.47;5.50;;;6.60;99.90;;;;;;5359121;26;20553;-65
2024/04/17 03:04:38;;;;;;;5.90;5.30;;;6.60;99.90;;;;;;5356912;26;20460;-66
2024/04/17 03:07:10;;;;;;;7.40;5.17;;;6.60;99.90;;;;;;5359077;26;20476;-65
2024/04/17 03:09:38;;;;;;;6.10;5.50;;;6.60;99.90;;;;;;5351025;26;20544;-65
2024/04/17 03:12:08;;;;;;;6.13;5.20;;;6.50;99.90;;;;;;5355612;26;20541;-65
2024/04/17 03:14:35;;;;;;;6.33;5.60;;;6.50;99.90;;;;;;5355417;26;20526;-64
2024/04/17 03:17:05;;;;;;;5.33;4.83;;;6.40;99.90;;;;;;5355561;26;20876;-65
2024/04/17 03:19:32;;;;;;;8.00;5.23;;;6.40;99.90;;;;;;5349780;26;20497;-65
2024/04/17 03:22:02;;;;;;;6.30;5.37;;;6.40;99.90;;;;;;5357145;26;20484;-65
2024/04/17 03:24:32;;;;;;;5.63;5.13;;;6.40;99.90;;;;;;5356969;26;20476;-65
2024/04/17 03:27:02;;;;;;;5.10;4.60;;;6.40;99.90;;;;;;5353124;26;20552;-64
2024/04/17 03:29:29;;;;;;;5.30;4.90;;;6.40;99.90;;;;;;5357168;26;20472;-65
2024/04/17 03:32:03;;;;;;;5.50;4.87;;;6.30;99.90;;;;;;5354408;26;20540;-65
2024/04/17 03:34:31;;;;;;;5.43;5.00;;;6.30;99.90;;;;;;5357723;26;20483;-65
2024/04/17 03:37:00;;;;;;;6.30;5.37;;;6.30;99.90;;;;;;5349737;26;21297;-65
2024/04/17 03:39:31;;;;;;;5.77;5.17;;;6.30;99.90;;;;;;5358996;26;20489;-65
2024/04/17 03:42:04;;;;;;;7.13;5.30;;;6.30;99.90;;;;;;5356659;26;20602;-64
2024/04/17 03:44:33;;;;;;;6.20;5.37;;;6.30;99.90;;;;;;5357497;26;21149;-65
2024/04/17 03:47:03;;;;;;;5.77;5.03;;;6.30;99.90;;;;;;5356313;26;20492;-65
2024/04/17 03:49:30;;;;;;;6.00;5.20;;;6.20;99.90;;;;;;5354252;26;20497;-65
2024/04/17 03:52:00;;;;;;;6.00;5.40;;;6.20;99.90;;;;;;5357752;26;20492;-65
2024/04/17 03:54:28;;;;;;;5.80;5.30;;;6.20;99.90;;;;;;5356399;26;20608;-65
2024/04/17 03:56:57;;;;;;;6.23;5.63;;;6.20;99.90;;;;;;5357440;26;20490;-65
2024/04/17 03:59:27;;;;;;;5.40;4.90;;;6.20;99.90;;;;;;5355548;26;20880;-65
2024/04/17 04:01:57;;;;;;;5.77;5.27;;;6.20;99.90;;;;;;5356546;26;20492;-65
2024/04/17 04:04:24;;;;;;;5.43;4.93;;;6.20;99.90;;;;;;5357963;26;20464;-64
2024/04/17 04:06:54;;;;;;;5.33;4.90;;;6.10;99.90;;;;;;5351526;26;20540;-65
2024/04/17 04:09:21;;;;;;;5.87;5.37;;;6.10;99.90;;;;;;5351456;26;21194;-65
2024/04/17 04:11:51;;;;;;;6.37;5.77;;;6.10;99.90;;;;;;5346853;26;20482;-64
2024/04/17 04:14:18;;;;;;;6.00;5.50;;;6.10;99.90;;;;;;5351342;26;20523;-65
2024/04/17 04:16:51;;;;;;;6.30;5.50;;;6.10;99.90;;;;;;5349237;26;20486;-67
2024/04/17 04:19:20;;;;;;;8.63;5.80;;;6.10;99.90;;;;;;5353417;26;20830;-65
2024/04/17 04:21:49;;;;;;;6.63;5.40;;;6.10;99.90;;;;;;5352497;26;20481;-65
2024/04/17 04:24:17;;;;;;;5.70;5.20;;;6.10;99.90;;;;;;5348103;26;22539;-66
2024/04/17 04:26:47;;;;;;;7.03;5.57;;;6.10;99.90;;;;;;5351702;26;20487;-65
2024/04/17 04:29:14;;;;;;;5.70;5.00;;;6.10;99.90;;;;;;5347361;26;20509;-66
2024/04/17 04:31:44;;;;;;;5.60;5.10;;;6.10;99.90;;;;;;5350021;26;20469;-66
2024/04/17 04:34:14;;;;;;;6.17;5.63;;;6.10;99.90;;;;;;5347540;26;20481;-65
2024/04/17 04:36:44;;;;;;;6.20;5.50;;;6.10;99.90;;;;;;5353708;26;20548;-65
2024/04/17 04:39:11;;;;;;;5.47;5.07;;;6.10;99.90;;;;;;5346441;26;20548;-65
2024/04/17 04:41:41;;;;;;;5.77;5.13;;;6.10;99.90;;;;;;5343693;26;20873;-65
2024/04/17 04:44:08;;;;;;;5.17;4.77;;;6.10;99.90;;;;;;5351327;26;20488;-68
2024/04/17 04:46:38;;;;;;;6.40;5.20;;;6.10;99.90;;;;;;5348465;26;20484;-66
2024/04/17 04:49:05;;;;;;;5.50;5.00;;;6.10;99.90;;;;;;5346716;26;20489;-65
2024/04/17 04:51:37;;;;;;;6.83;5.80;;;6.00;99.90;;;;;;5353205;26;20569;-66
2024/04/17 04:54:04;;;;;;;6.53;5.60;;;6.00;99.90;;;;;;5347860;26;20828;-66
2024/04/17 04:56:34;;;;;;;6.00;5.40;;;6.10;99.90;;;;;;5349791;26;20484;-64
2024/04/17 04:59:01;;;;;;;6.00;5.40;;;6.00;99.90;;;;;;5351013;26;20491;-65
2024/04/17 05:01:31;;;;;;;6.30;5.70;;;6.10;99.90;;;;;;5349212;26;20496;-63
2024/04/17 05:03:58;;;;;;;5.73;5.17;;;6.10;99.90;;;;;;5345870;26;20606;-64
2024/04/17 05:06:28;;;;;;;5.90;5.30;;;6.10;99.90;;;;;;5351409;26;20491;-65
2024/04/17 05:08:58;;;;;;;6.20;5.60;;;6.10;99.90;;;;;;5352145;26;21150;-65
2024/04/17 05:11:28;;;;;;;8.20;5.57;;;6.10;99.90;;;;;;5348514;26;20488;-65
2024/04/17 05:13:55;;;;;;;5.90;5.30;;;6.10;99.90;;;;;;5348327;26;20484;-65
2024/04/17 05:16:25;;;;;;;5.80;5.20;;;6.10;99.90;;;;;;5359758;26;20549;-68
2024/04/17 05:18:52;;;;;;;6.37;5.53;;;6.20;99.90;;;;;;5352669;26;20978;-65
2024/04/17 05:21:22;;;;;;;5.70;5.13;;;6.20;99.90;;;;;;5343955;26;20485;-65
2024/04/17 05:23:49;;;;;;;5.60;5.10;;;6.20;99.90;;;;;;5347182;26;21129;-65
2024/04/17 05:26:22;;;;;;;5.57;4.97;;;6.20;99.90;;;;;;5351602;26;20485;-66
2024/04/17 05:28:49;;;;;;;5.80;5.27;;;6.30;99.90;;;;;;5351387;26;20492;-68
2024/04/17 05:31:19;;;;;;;5.80;5.23;;;6.30;99.90;;;;;;5357928;26;20873;-65
2024/04/17 05:33:47;;;;;;;5.40;4.90;;;6.30;99.90;;;;;;5359534;26;21048;-65
2024/04/17 05:36:17;;;;;;;4.90;4.50;;;6.30;99.90;;;;;;5352869;26;20540;-66
2024/04/17 05:38:45;;;;;;;5.60;5.10;;;6.40;99.90;;;;;;5353849;26;20488;-65
2024/04/17 05:41:14;;;;;;;8.57;5.30;;;6.50;99.90;;;;;;5357418;26;20481;-65
2024/04/17 05:43:44;;;;;;;5.20;4.70;;;6.50;99.90;;;;;;5356363;26;20533;-65
2024/04/17 05:46:14;;;;;;;5.20;4.70;;;6.50;99.90;;;;;;5358966;26;20567;-65
2024/04/17 05:48:41;;;;;;;5.17;4.50;;;6.50;99.90;;;;;;5359924;26;21044;-65
2024/04/17 05:51:11;;;;;;;4.13;3.73;;;6.50;99.90;;;;;;5356629;26;20488;-65
2024/04/17 05:53:38;;;;;;;4.63;4.23;;;6.60;99.90;;;;;;5362302;26;20549;-66
2024/04/17 05:56:09;;;;;;;5.43;4.70;;;6.60;99.90;;;;;;5360256;26;20555;-66
2024/04/17 05:58:36;;;;;;;4.47;4.07;;;6.70;99.90;;;;;;5354080;26;21404;-65
2024/04/17 06:01:09;;;;;;;5.03;4.53;;;6.70;99.90;;;;;;5356218;26;20576;-65
2024/04/17 06:03:38;;;;;;;4.30;3.90;;;6.70;99.90;;;;;;5353750;26;21124;-65
2024/04/17 06:06:06;;;;;;;4.07;3.67;;;6.70;99.90;;;;;;5361555;26;20563;-65
2024/04/17 06:08:35;;;;;;;4.20;3.87;;;6.70;99.90;;;;;;5358006;26;20488;-66
2024/04/17 06:11:04;;;;;;;3.70;3.40;;;6.80;99.90;;;;;;5354300;26;20493;-65
2024/04/17 06:13:34;;;;;;;3.87;3.47;;;6.80;99.90;;;;;;5358302;26;20476;-65
2024/04/17 06:16:02;;;;;;;4.90;3.93;;;6.90;99.90;;;;;;5356132;26;20493;-65
2024/04/17 06:18:34;;;;;;;4.37;3.97;;;6.90;99.90;;;;;;5359712;26;20598;-65
2024/04/17 06:21:02;;;;;;;3.67;3.37;;;6.90;99.90;;;;;;5359745;26;20488;-65
2024/04/17 06:23:31;;;;;;;3.97;3.40;;;7.00;99.90;;;;;;5361560;26;21148;-65
2024/04/17 06:25:59;;;;;;;3.80;3.50;;;7.00;99.90;;;;;;5361269;26;20488;-65
2024/04/17 06:28:29;;;;;;;4.23;3.60;;;7.10;99.90;;;;;;5348491;26;20489;-65
2024/04/17 06:30:56;;;;;;;3.80;3.50;;;7.10;99.90;;;;;;5357199;26;20484;-65
2024/04/17 06:33:26;;;;;;;4.07;3.77;;;7.20;99.90;;;;;;5359958;26;20596;-65
2024/04/17 06:35:55;;;;;;;4.23;3.83;;;7.20;99.90;;;;;;5362194;26;21098;-65
2024/04/17 06:38:25;;;;;;;3.67;3.37;;;7.10;99.90;;;;;;5359219;26;20598;-65
2024/04/17 06:40:55;;;;;;;3.40;3.10;;;7.20;99.90;;;;;;5358872;26;20484;-65
2024/04/17 06:43:25;;;;;;;3.63;3.33;;;7.20;99.90;;;;;;5354164;26;20526;-65
2024/04/17 06:45:52;;;;;;;5.80;3.37;;;7.30;99.90;;;;;;5360410;26;20507;-65
2024/04/17 06:48:22;;;;;;;3.80;3.40;;;7.30;99.90;;;;;;5356439;26;20493;-66
2024/04/17 06:50:55;;;;;;;3.63;3.23;;;7.40;99.90;;;;;;5357660;26;20534;-65
2024/04/17 06:53:25;;;;;;;3.27;2.97;;;7.40;99.90;;;;;;5359088;26;20592;-65
2024/04/17 06:55:53;;;;;;;3.10;2.80;;;7.40;99.90;;;;;;5358907;26;20546;-65
2024/04/17 06:58:23;;;;;;;3.13;2.83;;;7.40;99.90;;;;;;5354307;26;20888;-65
2024/04/17 07:00:52;;;;;;;3.60;3.30;;;7.40;99.90;;;;;;5357441;26;20907;-65
2024/04/17 07:03:22;;;;;;;2.90;2.70;;;7.40;99.90;;;;;;5357881;26;20472;-65
2024/04/17 07:06:05;;;;;;;3.27;2.93;;;7.40;99.90;;;;;;5357494;26;20489;-65
2024/04/17 07:08:32;;;;;;;3.90;3.03;;;7.50;99.90;;;;;;5354109;26;20500;-65
2024/04/17 07:11:02;;;;;;;2.57;2.30;;;7.60;99.90;;;;;;5359532;26;20489;-65
2024/04/17 07:13:29;;;;;;;5.00;2.70;;;7.70;99.90;;;;;;5353873;26;20532;-65
2024/04/17 07:16:00;;;;;;;2.70;2.50;;;7.80;99.90;;;;;;5357463;26;20503;-65
2024/04/17 07:18:27;;;;;;;3.00;2.17;;;7.80;99.90;;;;;;5358726;26;20541;-65
2024/04/17 07:20:57;;;;;;;3.23;2.87;;;7.80;99.90;;;;;;5357841;26;20534;-65
2024/04/17 07:23:27;;;;;;;3.30;2.80;;;7.90;99.90;;;;;;5357113;26;21109;-65
2024/04/17 07:25:57;;;;;;;2.87;2.20;;;7.90;99.90;;;;;;5357842;26;20496;-66
2024/04/17 07:28:24;;;;;;;6.13;2.67;;;8.00;99.90;;;;;;5357168;26;20497;-65
2024/04/17 07:30:54;;;;;;;5.90;2.43;;;8.00;99.90;;;;;;5357730;26;20483;-65
2024/04/17 07:33:24;;;;;;;2.50;2.00;;;8.10;99.90;;;;;;5357497;26;20549;-65
2024/04/17 07:35:58;;;;;;;3.70;2.40;;;8.10;99.90;;;;;;5354324;26;20493;-65
2024/04/17 07:38:30;;;;;;;6.80;2.30;;;8.10;99.90;;;;;;5358529;26;20872;-65
2024/04/17 07:40:58;;;;;;;2.37;2.17;;;8.10;99.90;;;;;;5355374;26;20483;-65
2024/04/17 07:43:30;;;;;;;1.90;1.80;;;8.10;99.90;;;;;;5356795;26;20603;-66
2024/04/17 07:45:58;;;;;;;2.27;1.73;;;8.20;99.90;;;;;;5355708;26;20611;-65
2024/04/17 07:48:28;;;;;;;2.47;1.63;;;8.20;99.90;;;;;;5359023;26;20534;-65
2024/04/17 07:50:55;;;;;;;2.00;1.80;;;8.40;99.90;;;;;;5360372;26;20580;-65
2024/04/17 07:53:25;;;;;;;2.30;2.10;;;8.50;99.90;;;;;;5356754;26;20481;-66
2024/04/17 07:55:55;;;;;;;6.40;2.27;;;8.50;99.90;;;;;;5357691;26;20550;-64
2024/04/17 07:58:25;;;;;;;3.10;2.10;;;8.60;99.90;;;;;;5353551;26;20572;-65
2024/04/17 08:00:52;;;;;;;3.20;1.80;;;8.70;99.90;;;;;;5357367;26;20596;-65
2024/04/17 08:03:22;;;;;;;3.20;1.70;;;8.70;99.90;;;;;;5350673;26;20512;-65
2024/04/17 08:05:51;;;;;;;2.30;2.13;;;8.80;99.90;;;;;;5355274;26;20493;-65
2024/04/17 08:08:21;;;;;;;2.40;1.87;;;8.80;99.90;;;;;;5354333;26;20648;-65
2024/04/17 08:10:49;;;;;;;2.70;1.50;;;8.90;99.90;;;;;;5359160;26;21163;-65
2024/04/17 08:13:21;;;;;;;2.53;2.23;;;8.90;99.90;;;;;;5357999;26;20606;-65
2024/04/17 08:15:52;;;;;;;2.43;1.70;;;8.90;99.90;;;;;;5352577;26;20493;-65
2024/04/17 08:18:25;;;;;;;1.90;1.67;;;9.00;99.90;;;;;;5350559;26;20500;-65
2024/04/17 08:20:55;;;;;;;3.93;1.90;;;9.00;99.90;;;;;;5359474;26;20928;-65
2024/04/17 08:23:25;;;;;;;3.73;1.97;;;9.00;99.90;;;;;;5355919;26;20562;-65
2024/04/17 08:25:57;;;;;;;2.07;1.40;;;9.10;99.90;;;;;;5352656;26;20487;-65
2024/04/17 08:28:29;;;;;;;2.50;1.40;;;9.10;99.90;;;;;;5354466;26;20875;-65
2024/04/17 08:30:57;;;;;;;2.27;1.20;;;9.20;99.90;;;;;;5351031;26;20492;-65
2024/04/17 08:33:27;;;;;;;2.90;1.30;;;9.30;99.90;;;;;;5355649;26;20481;-66
2024/04/17 08:35:55;;;;;;;1.27;1.20;;;9.30;99.90;;;;;;5352541;26;20501;-66
2024/04/17 08:38:26;;;;;;;1.40;1.10;;;9.30;99.90;;;;;;5356532;26;20963;-65
2024/04/17 08:40:53;;;;;;;2.20;1.50;;;9.40;99.90;;;;;;5354436;26;20485;-65
2024/04/17 08:43:29;;;;;;;2.37;1.20;;;9.40;99.90;;;;;;5352734;26;20500;-66
2024/04/17 08:45:56;;;;;;;2.50;1.10;;;9.50;99.90;;;;;;5358646;26;20479;-65
2024/04/17 08:48:27;;;;;;;1.57;1.30;;;9.60;99.90;;;;;;5356031;26;20609;-65
2024/04/17 08:50:58;;;;;;;2.10;1.60;;;9.60;99.90;;;;;;5357197;26;20474;-65
2024/04/17 08:53:28;;;;;;;1.50;1.30;;;9.70;99.90;;;;;;5356506;26;20491;-65
2024/04/17 08:55:56;;;;;;;1.50;1.20;;;9.70;99.90;;;;;;5352414;26;20622;-66
2024/04/17 08:58:29;;;;;;;2.03;1.60;;;9.90;99.90;;;;;;5356711;26;20489;-66
2024/04/17 09:00:56;;;;;;;2.77;1.30;;;9.90;99.90;;;;;;5356316;26;20526;-66
2024/04/17 09:03:26;;;;;;;2.60;1.40;;;9.90;99.90;;;;;;5354388;26;21045;-66
2024/04/17 09:05:54;;;;;;;1.60;1.43;;;9.90;99.90;;;;;;5353661;26;20574;-67
2024/04/17 09:08:26;;;;;;;1.80;1.43;;;9.90;99.90;;;;;;5355297;26;20576;-66
2024/04/17 09:10:54;;;;;;;1.90;1.70;;;9.90;99.90;;;;;;5356275;26;20538;-66
2024/04/17 09:13:24;;;;;;;2.03;1.70;;;10.00;99.90;;;;;;5353900;26;20549;-66
2024/04/17 09:15:54;;;;;;;2.00;1.63;;;10.10;99.90;;;;;;5355299;26;20544;-67
2024/04/17 09:18:27;;;;;;;1.80;1.50;;;10.10;99.90;;;;;;5357967;26;20580;-66
2024/04/17 09:20:55;;;;;;;2.37;1.50;;;10.20;99.90;;;;;;5356588;26;20476;-66
2024/04/17 09:23:26;;;;;;;1.57;1.47;;;10.30;99.90;;;;;;5348297;26;20563;-67
2024/04/17 09:25:54;;;;;;;2.20;1.40;;;10.30;97.70;;;;;;5350023;26;20539;-66
2024/04/17 09:28:25;;;;;;;1.63;1.53;;;10.30;99.90;;;;;;5354626;26;20501;-66
2024/04/17 09:30:55;;;;;;;4.93;1.70;;;10.30;99.90;;;;;;5353079;26;20604;-67
2024/04/17 09:33:25;;;;;;;2.30;1.80;;;10.40;99.90;;;;;;5348757;26;20488;-67
2024/04/17 09:35:52;;;;;;;2.73;2.30;;;10.40;99.90;;;;;;5357109;26;20484;-67
2024/04/17 09:38:24;;;;;;;3.20;2.50;;;10.50;99.90;;;;;;5357184;26;20470;-64
2024/04/17 09:40:52;;;;;;;3.40;2.60;;;10.50;99.90;;;;;;5355689;26;21101;-68
2024/04/17 09:43:26;;;;;;;3.60;2.10;;;10.60;99.90;;;;;;5359299;26;20476;-64
2024/04/17 09:46:01;;;;;;;2.73;2.27;;;10.70;99.90;;;;;;5362678;26;20674;-65
2024/04/17 09:48:32;;;;;;;3.87;2.60;;;10.70;99.90;;;;;;5358288;26;20481;-66
2024/04/17 09:51:02;;;;;;;3.10;2.80;;;10.80;99.90;;;;;;5359133;26;20866;-65
2024/04/17 09:53:34;;;;;;;2.93;2.33;;;10.90;99.90;;;;;;5355489;26;20596;-65
2024/04/17 09:56:05;;;;;;;2.37;2.07;;;11.00;99.90;;;;;;5355437;26;20541;-65
2024/04/17 09:58:35;;;;;;;3.13;2.50;;;11.00;99.90;;;;;;5356611;26;20562;-65
2024/04/17 10:01:06;;;;;;;2.63;2.10;;;11.00;99.90;;;;;;5359542;26;20473;-65
2024/04/17 10:03:37;;;;;;;1.87;1.77;;;10.90;99.90;;;;;;5362400;26;20599;-65
2024/04/17 10:06:05;;;;;;;2.40;2.00;;;10.90;99.90;;;;;;5358203;26;20488;-65
2024/04/17 10:08:37;;;;;;;2.57;2.20;;;10.90;99.90;;;;;;5355053;26;20606;-65
2024/04/17 10:11:05;;;;;;;2.60;2.10;;;10.90;99.90;;;;;;5353078;26;20537;-65
2024/04/17 10:13:35;;;;;;;3.13;2.10;;;10.90;99.90;;;;;;5357652;26;20488;-65
2024/04/17 10:16:06;;;;;;;2.83;2.00;;;11.00;99.90;;;;;;5356444;26;20477;-65
2024/04/17 10:18:36;;;;;;;2.80;1.43;;;11.00;99.90;;;;;;5359970;26;21158;-65
2024/04/17 10:21:03;;;;;;;2.53;1.50;;;11.00;99.90;;;;;;5361149;26;20527;-65
2024/04/17 10:23:33;;;;;;;1.60;1.37;;;11.00;99.90;;;;;;5360568;26;20902;-65
2024/04/17 10:26:00;;;;;;;1.93;1.40;;;11.00;99.90;;;;;;5358577;26;20822;-65
2024/04/17 10:28:30;;;;;;;1.67;1.23;;;10.90;99.90;;;;;;5355881;26;20540;-65
2024/04/17 10:31:01;;;;;;;3.97;1.30;;;11.00;99.90;;;;;;5358463;26;21119;-64
2024/04/17 10:33:39;;;;;;;2.13;1.33;;;11.10;99.90;;;;;;5360789;26;20863;-66
2024/04/17 10:36:07;;;;;;;1.40;1.20;;;11.20;99.90;;;;;;5359799;26;20487;-65
2024/04/17 10:38:41;;;;;;;1.43;1.10;;;11.30;99.90;;;;;;5356284;26;23475;-65
2024/04/17 10:41:12;;;;;;;0.83;0.83;;;11.40;99.90;;;;;;5357539;26;20489;-65
2024/04/17 10:43:42;;;;;;;2.10;1.20;;;11.60;99.20;;;;;;5360525;26;20545;-65
2024/04/17 10:46:10;;;;;;;1.23;1.13;;;11.60;85.10;;;;;;5357081;26;21091;-65
2024/04/17 10:48:51;;;;;;;1.13;1.00;;;11.60;92.00;;;;;;5356434;26;20493;-65
2024/04/17 10:51:20;;;;;;;2.00;0.93;;;11.70;93.00;;;;;;5358840;26;20566;-65
2024/04/17 10:53:51;;;;;;;1.23;1.00;;;11.60;76.90;;;;;;5357114;26;20496;-65
2024/04/17 10:56:18;;;;;;;3.63;1.17;;;11.60;74.00;;;;;;5358944;26;21042;-65
2024/04/17 10:58:48;;;;;;;1.70;1.17;;;11.60;78.00;;;;;;5352675;26;20528;-65
2024/04/17 11:01:16;;;;;;;1.90;0.90;;;11.80;91.30;;;;;;5360467;26;20493;-65
2024/04/17 11:03:49;;;;;;;1.53;1.00;;;11.90;99.90;;;;;;5360349;26;20481;-65
2024/04/17 11:06:17;;;;;;;1.83;1.30;;;12.10;91.30;;;;;;5357612;26;20891;-65
2024/04/17 11:08:47;;;;;;;1.10;0.90;;;12.20;82.70;;;;;;5356513;26;20544;-66
2024/04/17 11:11:25;;;;;;;1.57;1.03;;;12.20;91.80;;;;;;5356738;26;21087;-65
2024/04/17 11:13:56;;;;;;;0.90;0.90;;;12.10;80.60;;;;;;5353260;26;20593;-66
2024/04/17 11:16:23;;;;;;;1.37;1.10;;;12.10;72.90;;;;;;5352973;26;20493;-65
2024/04/17 11:18:55;;;;;;;1.20;0.90;;;12.10;62.20;;;;;;5346561;26;20514;-65
2024/04/17 11:21:23;;;;;;;1.40;1.30;;;12.10;67.60;;;;;;5359696;26;20532;-65
2024/04/17 11:23:53;;;;;;;1.00;0.90;;;12.20;68.00;;;;;;5357304;26;20528;-65
2024/04/17 11:26:21;;;;;;;1.10;1.00;;;12.20;83.50;;;;;;5356139;26;20488;-65
2024/04/17 11:28:50;;;;;;;3.90;1.30;;;12.30;75.10;;;;;;5358760;26;20532;-65
2024/04/17 11:31:18;;;;;;;2.57;1.30;;;12.30;84.40;;;;;;5354027;26;20487;-65
2024/04/17 11:33:48;;;;;;;2.07;1.13;;;12.40;90.80;;;;;;5353243;26;20493;-67
2024/04/17 11:36:18;;;;;;;1.20;1.10;;;12.40;91.10;;;;;;5359284;26;20524;-67
2024/04/17 11:38:49;;;;;;;1.50;1.30;;;12.50;79.80;;;;;;5358648;26;20831;-67
2024/04/17 11:41:16;;;;;;;2.43;1.20;;;12.50;82.70;;;;;;5357104;26;20544;-67
2024/04/17 11:43:47;;;;;;;2.83;1.13;;;12.50;79.90;;;;;;5349978;26;20787;-67
2024/04/17 11:46:15;;;;;;;3.33;1.10;;;12.40;84.00;;;;;;5356313;26;20557;-67
2024/04/17 11:48:45;;;;;;;2.10;1.30;;;12.40;84.00;;;;;;5356275;26;20492;-66
2024/04/17 11:51:12;;;;;;;1.37;0.90;;;12.30;80.70;;;;;;5358026;26;20888;-66
2024/04/17 11:53:45;;;;;;;1.03;1.00;;;12.20;83.40;;;;;;5351262;26;20492;-66
2024/04/17 11:56:13;;;;;;;1.43;1.00;;;12.10;76.30;;;;;;5352817;26;20599;-64
2024/04/17 11:58:45;;;;;;;1.93;1.00;;;12.10;73.90;;;;;;5354568;26;20492;-67
2024/04/17 12:01:12;;;;;;;0.70;0.70;;;12.20;76.30;;;;;;5355200;26;20960;-67
2024/04/17 12:03:42;;;;;;;1.77;1.10;;;12.20;70.40;;;;;;5348154;26;20538;-66
2024/04/17 12:06:10;;;;;;;1.43;0.87;;;12.20;75.10;;;;;;5358098;26;20520;-67
2024/04/17 12:08:40;;;;;;;1.83;0.90;;;12.20;74.20;;;;;;5353746;26;20485;-66
2024/04/17 12:11:10;;;;;;;1.03;1.03;;;12.20;73.10;;;;;;5357382;26;20541;-66
2024/04/17 12:13:40;;;;;;;2.10;1.20;;;12.20;79.80;;;;;;5357258;26;20575;-66
2024/04/17 12:16:08;;;;;;;2.63;1.20;;;12.20;78.00;;;;;;5358725;26;20607;-67
2024/04/17 12:18:39;;;;;;;1.37;1.10;;;12.10;84.10;;;;;;5346737;26;20496;-67
2024/04/17 12:21:07;;;;;;;1.30;1.10;;;12.10;78.60;;;;;;5354964;26;21491;-66
2024/04/17 12:23:37;;;;;;;3.30;1.60;;;12.10;86.30;;;;;;5356494;26;20571;-66
2024/04/17 12:28:59;;;;;;;1.40;1.30;;;11.90;99.90;;;;;;5356355;26;20586;-67
2024/04/17 12:31:30;;;;;;;2.53;1.70;;;11.80;99.90;;;;;;5347334;26;20532;-66
2024/04/17 12:33:59;;;;;;;1.80;1.70;;;11.60;99.90;;;;;;5356906;26;20549;-67
2024/04/17 12:36:30;;;;;;;2.90;1.80;;;11.50;99.90;;;;;;5350359;26;20941;-67
2024/04/17 12:39:00;;;;;;;3.90;2.17;;;11.40;99.90;;;;;;5340188;26;20492;-68
2024/04/17 12:41:31;;;;;;;2.87;1.50;;;11.50;99.90;;;;;;5337744;26;21139;-68
2024/04/17 12:44:00;;;;;;;1.80;1.60;;;11.70;99.90;;;;;;5343632;26;20562;-67
2024/04/17 12:46:28;;;;;;;1.60;1.50;;;11.80;99.90;;;;;;5348490;26;20556;-66
2024/04/17 12:48:58;;;;;;;3.00;1.50;;;12.00;99.90;;;;;;5350259;26;20552;-65
2024/04/17 12:51:28;;;;;;;1.80;1.50;;;12.10;99.90;;;;;;5347729;26;20994;-67
2024/04/17 12:53:55;;;;;;;1.53;1.43;;;12.20;99.90;;;;;;5344415;26;20489;-67
2024/04/17 12:56:25;;;;;;;2.50;1.70;;;12.30;99.90;;;;;;5339325;26;20830;-67
2024/04/17 12:58:57;;;;;;;2.70;1.60;;;12.50;99.90;;;;;;5338404;26;20610;-66
2024/04/17 13:01:27;;;;;;;1.37;1.27;;;12.60;99.90;;;;;;5345384;26;20457;-66
2024/04/17 13:03:57;;;;;;;1.50;1.40;;;12.90;99.90;;;;;;5343742;26;20492;-67
2024/04/17 13:06:27;;;;;;;2.30;1.40;;;13.10;99.90;;;;;;5334102;26;20552;-66